Time;durP1;ratioP1;P1;durP2;ratioP2;P2;SDS_P1;SDS_P2;PMS_P1;PMS_P2;Temp;Humidity;BMP_temperature;BMP_pressure;BME280_temperature;BME280_humidity;BME280_pressure;Samples;Min_cycle;Max_cycle;Signal;HPM_P1;HPM_P2
2024/03/18 00:02:02;;;;;;;3.85;1.30;;;9.10;99.90;;;;;;5027266;28;20394;-72
2024/03/18 00:04:28;;;;;;;4.43;1.45;;;9.10;99.90;;;;;;5025677;28;20115;-71
2024/03/18 00:06:54;;;;;;;3.97;1.70;;;9.10;99.90;;;;;;5023521;28;20064;-75
2024/03/18 00:09:20;;;;;;;2.30;1.50;;;9.00;99.90;;;;;;5023666;28;20061;-71
2024/03/18 00:11:45;;;;;;;2.35;1.70;;;8.90;99.90;;;;;;5019349;28;20446;-71
2024/03/18 00:14:13;;;;;;;3.20;1.63;;;8.70;99.90;;;;;;5021640;28;20061;-71
2024/03/18 00:16:38;;;;;;;4.22;1.38;;;8.50;99.90;;;;;;5015082;28;20229;-72
2024/03/18 00:19:04;;;;;;;3.75;2.13;;;8.50;99.90;;;;;;5018532;28;20478;-72
2024/03/18 00:21:30;;;;;;;2.95;1.63;;;8.50;99.90;;;;;;5021098;28;20347;-73
2024/03/18 00:23:55;;;;;;;2.72;1.60;;;8.60;99.90;;;;;;5021229;28;20064;-72
2024/03/18 00:26:21;;;;;;;3.38;1.70;;;8.60;99.90;;;;;;5023454;28;20475;-72
2024/03/18 00:28:47;;;;;;;2.63;1.90;;;8.60;99.90;;;;;;5023900;28;20372;-72
2024/03/18 00:31:12;;;;;;;3.03;1.50;;;8.70;99.90;;;;;;5021814;28;20037;-73
2024/03/18 00:33:38;;;;;;;2.47;1.50;;;8.70;99.90;;;;;;5021753;28;20041;-72
2024/03/18 00:36:04;;;;;;;1.77;1.58;;;8.70;99.90;;;;;;5017771;28;20048;-71
2024/03/18 00:38:30;;;;;;;1.40;1.30;;;8.80;99.90;;;;;;5021183;28;20040;-72
2024/03/18 00:43:44;;;;;;;2.85;1.52;;;8.80;99.90;;;;;;5026364;28;20060;-71
2024/03/18 00:46:10;;;;;;;2.17;1.45;;;8.90;99.90;;;;;;5027069;28;20030;-71
2024/03/18 00:48:36;;;;;;;2.67;1.95;;;8.90;99.90;;;;;;5027158;28;20481;-71
2024/03/18 00:51:01;;;;;;;1.88;1.48;;;8.90;99.90;;;;;;5024513;28;20029;-72
2024/03/18 00:53:27;;;;;;;5.47;1.58;;;8.90;99.90;;;;;;5022695;28;20049;-71
2024/03/18 00:55:52;;;;;;;3.17;1.80;;;8.90;99.90;;;;;;5025779;28;20091;-71
2024/03/18 00:58:18;;;;;;;1.98;1.65;;;8.90;99.90;;;;;;5023509;28;20643;-71
2024/03/18 01:00:44;;;;;;;2.80;1.98;;;8.90;99.90;;;;;;5023897;28;20394;-71
2024/03/18 01:03:10;;;;;;;3.22;2.00;;;8.90;99.90;;;;;;5026279;28;20546;-71
2024/03/18 01:05:36;;;;;;;2.50;2.05;;;8.90;99.90;;;;;;5027044;28;20108;-72
2024/03/18 01:08:02;;;;;;;5.30;2.10;;;8.90;99.90;;;;;;5030544;28;20064;-71
2024/03/18 01:10:28;;;;;;;2.00;1.67;;;8.90;99.90;;;;;;5031503;28;20049;-71
2024/03/18 01:12:56;;;;;;;2.38;2.10;;;9.00;99.90;;;;;;5025099;28;20033;-71
2024/03/18 01:15:22;;;;;;;4.53;2.17;;;9.00;99.90;;;;;;5027928;28;20028;-72
2024/03/18 01:17:47;;;;;;;2.60;2.03;;;9.00;99.90;;;;;;5031846;28;20112;-71
2024/03/18 01:20:18;;;;;;;2.25;1.90;;;9.00;99.90;;;;;;5031792;28;20025;-72
2024/03/18 01:22:48;;;;;;;3.35;2.30;;;8.90;99.90;;;;;;5031600;28;20037;-72
2024/03/18 01:25:14;;;;;;;2.58;2.00;;;8.80;99.90;;;;;;5036565;28;20510;-72
2024/03/18 01:27:40;;;;;;;3.28;2.05;;;8.90;99.90;;;;;;5033819;28;20041;-71
2024/03/18 01:30:11;;;;;;;2.70;2.15;;;8.90;99.90;;;;;;5036133;28;20036;-72
2024/03/18 01:32:38;;;;;;;4.72;2.38;;;8.90;99.90;;;;;;5037315;28;20084;-72
2024/03/18 01:35:07;;;;;;;3.15;1.88;;;8.90;99.90;;;;;;5030946;28;20029;-71
2024/03/18 01:37:35;;;;;;;2.15;1.95;;;8.90;99.90;;;;;;5038176;28;20053;-70
2024/03/18 01:40:00;;;;;;;3.57;2.13;;;8.90;99.90;;;;;;5032471;28;20060;-72
2024/03/18 01:42:26;;;;;;;1.95;1.85;;;8.90;99.90;;;;;;5036533;28;20276;-72
2024/03/18 01:44:53;;;;;;;2.60;2.40;;;8.80;99.90;;;;;;5033773;28;20060;-72
2024/03/18 01:47:20;;;;;;;3.60;2.28;;;8.90;99.90;;;;;;5030175;28;20025;-73
2024/03/18 01:49:47;;;;;;;2.50;2.30;;;8.90;99.90;;;;;;5032380;28;20033;-71
2024/03/18 01:52:12;;;;;;;5.22;2.40;;;8.90;99.90;;;;;;5034997;28;20013;-71
2024/03/18 01:54:39;;;;;;;3.92;2.40;;;8.90;99.90;;;;;;5035722;28;20063;-72
2024/03/18 01:57:05;;;;;;;2.90;2.70;;;8.90;99.90;;;;;;5035726;28;20029;-71
2024/03/18 01:59:30;;;;;;;3.90;3.60;;;8.90;99.90;;;;;;5039357;28;20060;-71
2024/03/18 02:01:56;;;;;;;4.53;4.05;;;8.90;99.90;;;;;;5032638;28;20129;-72
2024/03/18 02:04:21;;;;;;;4.57;3.75;;;8.90;99.90;;;;;;5048548;28;20032;-71
2024/03/18 02:06:47;;;;;;;4.15;2.45;;;8.90;99.90;;;;;;5037400;28;20025;-72
2024/03/18 02:09:15;;;;;;;2.40;2.20;;;8.90;99.90;;;;;;5032539;28;20079;-71
2024/03/18 02:11:41;;;;;;;3.47;2.30;;;8.90;99.90;;;;;;5034357;28;20030;-72
2024/03/18 02:14:13;;;;;;;2.50;2.20;;;9.00;99.90;;;;;;5035986;28;20218;-72
2024/03/18 02:16:39;;;;;;;4.18;1.95;;;9.00;99.90;;;;;;5033273;28;20025;-72
2024/03/18 02:19:05;;;;;;;3.72;1.90;;;9.00;99.90;;;;;;5033972;28;20036;-72
2024/03/18 02:21:31;;;;;;;5.07;2.30;;;9.00;99.90;;;;;;5030386;28;20053;-72
2024/03/18 02:23:57;;;;;;;4.70;2.20;;;9.00;99.90;;;;;;5033080;28;20041;-72
2024/03/18 02:26:24;;;;;;;3.33;2.20;;;8.90;99.90;;;;;;5034818;28;20033;-72
2024/03/18 02:28:51;;;;;;;2.85;1.83;;;8.90;99.90;;;;;;5032138;28;20040;-72
2024/03/18 02:31:17;;;;;;;4.15;2.20;;;8.90;99.90;;;;;;5029845;28;20029;-71
2024/03/18 02:33:44;;;;;;;2.80;1.88;;;8.90;99.90;;;;;;5032231;28;20026;-72
2024/03/18 02:36:10;;;;;;;2.83;1.88;;;8.90;99.90;;;;;;5031175;28;21293;-71
2024/03/18 02:38:35;;;;;;;2.15;1.92;;;8.90;99.90;;;;;;5029519;28;20106;-72
2024/03/18 02:41:01;;;;;;;3.75;2.25;;;8.90;99.90;;;;;;5028313;28;20097;-72
2024/03/18 02:43:27;;;;;;;2.65;2.15;;;8.90;99.90;;;;;;5031269;28;20045;-72
2024/03/18 02:45:52;;;;;;;3.10;1.98;;;8.90;99.90;;;;;;5032063;28;20037;-72
2024/03/18 02:48:18;;;;;;;4.50;2.28;;;8.90;99.90;;;;;;5034155;28;20029;-72
2024/03/18 02:50:44;;;;;;;1.98;1.65;;;9.00;99.90;;;;;;5031887;28;20033;-72
2024/03/18 02:53:10;;;;;;;3.08;2.00;;;9.00;99.90;;;;;;5032597;28;20088;-72
2024/03/18 02:55:35;;;;;;;2.10;1.88;;;9.00;99.90;;;;;;5029594;28;20297;-72
2024/03/18 02:58:01;;;;;;;2.92;1.90;;;9.00;99.90;;;;;;5028058;28;20072;-72
2024/03/18 03:00:27;;;;;;;3.58;2.15;;;9.00;99.90;;;;;;5030983;28;20033;-72
2024/03/18 03:02:53;;;;;;;2.80;1.90;;;9.00;99.90;;;;;;5030625;28;20086;-72
2024/03/18 03:05:19;;;;;;;3.05;2.42;;;8.90;99.90;;;;;;5033797;28;20025;-72
2024/03/18 03:07:44;;;;;;;3.63;1.85;;;9.00;99.90;;;;;;5030671;28;20021;-72
2024/03/18 03:10:12;;;;;;;3.30;2.28;;;9.00;99.90;;;;;;5034306;28;20383;-72
2024/03/18 03:12:37;;;;;;;2.42;2.22;;;8.90;99.90;;;;;;5033717;28;20041;-72
2024/03/18 03:15:04;;;;;;;3.75;2.13;;;9.00;99.90;;;;;;5032554;28;20022;-72
2024/03/18 03:17:29;;;;;;;2.05;1.85;;;9.00;99.90;;;;;;5032358;28;20029;-72
2024/03/18 03:19:55;;;;;;;3.35;2.00;;;9.00;99.90;;;;;;5033749;28;20032;-73
2024/03/18 03:22:21;;;;;;;3.17;2.20;;;9.00;99.90;;;;;;5029887;28;20034;-72
2024/03/18 03:24:50;;;;;;;2.53;1.60;;;9.00;99.90;;;;;;5034584;28;20059;-71
2024/03/18 03:27:15;;;;;;;4.32;2.03;;;9.00;99.90;;;;;;5037133;28;20028;-73
2024/03/18 03:29:42;;;;;;;2.75;1.63;;;9.00;99.90;;;;;;5041361;28;20017;-73
2024/03/18 03:32:13;;;;;;;2.97;1.80;;;9.00;99.90;;;;;;5040500;28;20569;-73
2024/03/18 03:34:39;;;;;;;3.22;1.80;;;9.00;99.90;;;;;;5045814;28;20040;-73
2024/03/18 03:37:05;;;;;;;2.08;1.70;;;8.90;99.90;;;;;;5039576;28;20486;-75
2024/03/18 03:39:30;;;;;;;2.47;1.58;;;9.00;99.90;;;;;;5030279;28;20034;-76
2024/03/18 03:41:56;;;;;;;3.38;1.90;;;9.00;99.90;;;;;;5033254;28;20109;-78
2024/03/18 03:44:22;;;;;;;2.75;1.60;;;9.00;99.90;;;;;;5034078;28;20021;-76
2024/03/18 03:46:50;;;;;;;3.88;1.92;;;9.00;99.90;;;;;;5036233;28;20026;-76
2024/03/18 03:49:19;;;;;;;2.83;1.65;;;9.00;99.90;;;;;;5030017;28;20025;-77
2024/03/18 03:51:45;;;;;;;1.88;1.67;;;9.10;99.90;;;;;;5033875;28;20033;-77
2024/03/18 03:54:11;;;;;;;2.47;1.90;;;9.00;99.90;;;;;;5032329;28;20120;-77
2024/03/18 03:56:37;;;;;;;2.30;1.65;;;9.00;99.90;;;;;;5035092;28;20034;-76
2024/03/18 03:59:03;;;;;;;2.15;1.90;;;9.00;99.90;;;;;;5033286;28;20031;-74
2024/03/18 04:01:28;;;;;;;3.60;1.83;;;9.00;99.90;;;;;;5031000;28;20029;-76
2024/03/18 04:03:54;;;;;;;4.43;1.90;;;8.90;99.90;;;;;;5033271;28;20610;-75
2024/03/18 04:06:20;;;;;;;1.70;1.50;;;8.90;99.90;;;;;;5034700;28;20040;-76
2024/03/18 04:08:46;;;;;;;2.28;1.90;;;8.80;99.90;;;;;;5034675;28;20028;-76
2024/03/18 04:11:12;;;;;;;2.03;1.80;;;8.90;99.90;;;;;;5034716;28;20073;-81
2024/03/18 04:13:37;;;;;;;3.47;2.20;;;8.90;99.90;;;;;;5033925;28;20025;-76
2024/03/18 04:16:04;;;;;;;6.18;2.20;;;8.80;99.90;;;;;;5031042;28;20619;-78
2024/03/18 04:18:30;;;;;;;3.45;2.15;;;8.80;99.90;;;;;;5028899;28;20022;-78
2024/03/18 04:20:59;;;;;;;2.85;1.90;;;8.80;99.90;;;;;;5028858;28;20026;-77
2024/03/18 04:23:29;;;;;;;2.53;1.70;;;8.80;99.90;;;;;;5032181;28;20033;-76
2024/03/18 04:25:57;;;;;;;3.10;2.00;;;8.80;99.90;;;;;;5035664;28;20040;-78
2024/03/18 04:28:22;;;;;;;21.92;8.93;;;8.80;99.90;;;;;;5033112;28;20033;-76
2024/03/18 04:30:48;;;;;;;33.17;14.18;;;8.80;99.90;;;;;;5034289;28;20387;-75
2024/03/18 04:33:14;;;;;;;24.33;10.60;;;8.80;99.90;;;;;;5031328;28;20872;-78
2024/03/18 04:35:39;;;;;;;17.38;9.05;;;8.80;99.90;;;;;;5029390;28;20029;-73
2024/03/18 04:38:05;;;;;;;9.77;5.50;;;8.80;99.90;;;;;;5030583;28;20108;-73
2024/03/18 04:40:31;;;;;;;5.30;3.22;;;8.80;99.90;;;;;;5024274;28;20390;-73
2024/03/18 04:42:57;;;;;;;10.57;4.63;;;8.80;99.90;;;;;;5034341;28;20026;-74
2024/03/18 04:45:22;;;;;;;5.10;3.33;;;8.80;99.90;;;;;;5031270;28;20022;-73
2024/03/18 04:47:50;;;;;;;3.50;2.20;;;8.90;99.90;;;;;;5034473;28;20029;-72
2024/03/18 04:50:20;;;;;;;3.58;2.40;;;8.80;99.90;;;;;;5028109;28;20898;-72
2024/03/18 04:52:46;;;;;;;4.57;2.42;;;8.80;99.90;;;;;;5031867;28;20095;-72
2024/03/18 04:55:12;;;;;;;3.25;2.20;;;8.80;99.90;;;;;;5029614;28;20026;-72
2024/03/18 04:57:38;;;;;;;4.72;2.40;;;8.80;99.90;;;;;;5025771;28;20033;-73
2024/03/18 05:00:07;;;;;;;2.40;2.20;;;8.80;99.90;;;;;;5033095;28;20079;-73
2024/03/18 05:02:32;;;;;;;4.38;2.03;;;8.70;99.90;;;;;;5032059;28;20037;-73
2024/03/18 05:04:58;;;;;;;2.55;2.20;;;8.70;99.90;;;;;;5034982;28;20047;-74
2024/03/18 05:07:24;;;;;;;3.90;2.42;;;8.60;99.90;;;;;;5052845;28;20076;-73
2024/03/18 05:09:54;;;;;;;2.90;2.20;;;8.50;99.90;;;;;;5037539;28;20052;-73
2024/03/18 05:12:20;;;;;;;2.40;1.92;;;8.40;99.90;;;;;;5037998;28;20066;-73
2024/03/18 05:14:45;;;;;;;2.10;1.90;;;8.40;99.90;;;;;;5037544;28;20041;-72
2024/03/18 05:17:11;;;;;;;2.40;1.95;;;8.40;99.90;;;;;;5036702;28;20041;-71
2024/03/18 05:19:37;;;;;;;4.28;2.22;;;8.40;99.90;;;;;;5034949;28;20037;-72
2024/03/18 05:22:02;;;;;;;3.92;3.63;;;8.40;99.90;;;;;;5033968;28;20129;-72
2024/03/18 05:24:28;;;;;;;3.55;3.28;;;8.40;99.90;;;;;;5036478;28;20037;-72
2024/03/18 05:26:54;;;;;;;3.60;2.92;;;8.40;99.90;;;;;;5035257;28;20045;-72
2024/03/18 05:29:20;;;;;;;3.20;2.30;;;8.40;99.90;;;;;;5037000;28;20109;-72
2024/03/18 05:31:46;;;;;;;4.10;2.35;;;8.40;99.90;;;;;;5035302;28;20033;-73
2024/03/18 05:34:11;;;;;;;2.67;2.22;;;8.40;99.90;;;;;;5035446;28;20025;-72
2024/03/18 05:36:37;;;;;;;3.75;2.10;;;8.50;99.90;;;;;;5036776;28;20087;-72
2024/03/18 05:39:04;;;;;;;2.10;2.00;;;8.50;99.90;;;;;;5034896;28;20061;-73
2024/03/18 05:41:30;;;;;;;3.25;2.38;;;8.60;99.90;;;;;;5036296;28;20030;-74
2024/03/18 05:43:55;;;;;;;3.15;2.05;;;8.60;99.90;;;;;;5033536;28;20017;-73
2024/03/18 05:46:22;;;;;;;3.42;2.30;;;8.60;99.90;;;;;;5031461;28;20518;-73
2024/03/18 05:48:48;;;;;;;4.20;2.20;;;8.70;99.90;;;;;;5032450;28;20032;-72
2024/03/18 05:51:14;;;;;;;5.22;2.67;;;8.70;99.90;;;;;;5034484;28;20554;-72
2024/03/18 05:53:40;;;;;;;5.72;2.33;;;8.70;99.90;;;;;;5033626;28;20691;-72
2024/03/18 05:56:06;;;;;;;2.30;2.10;;;8.80;99.90;;;;;;5031111;28;20029;-71
2024/03/18 05:58:41;;;;;;;2.72;2.20;;;8.80;99.90;;;;;;5045699;28;20608;-72
2024/03/18 06:01:11;;;;;;;2.50;2.30;;;8.80;99.90;;;;;;5031117;28;20042;-72
2024/03/18 06:03:37;;;;;;;2.50;2.17;;;8.80;99.90;;;;;;5031227;28;20040;-73
2024/03/18 06:06:24;;;;;;;2.28;1.83;;;8.80;99.90;;;;;;5049960;28;20089;-72
2024/03/18 06:08:52;;;;;;;1.92;1.83;;;8.60;99.90;;;;;;5035960;28;20069;-72
2024/03/18 06:11:18;;;;;;;2.90;2.10;;;8.60;99.90;;;;;;5033128;28;20071;-73
2024/03/18 06:13:44;;;;;;;2.70;2.38;;;8.50;99.90;;;;;;5035219;28;20120;-72
2024/03/18 06:16:44;;;;;;;2.50;2.35;;;8.50;99.90;;;;;;5033187;28;20032;-73
2024/03/18 06:19:14;;;;;;;4.90;2.53;;;8.50;99.90;;;;;;5028826;28;20109;-72
2024/03/18 06:21:42;;;;;;;3.00;2.35;;;8.50;99.90;;;;;;5031650;28;20508;-72
2024/03/18 06:24:17;;;;;;;3.83;2.53;;;8.50;99.90;;;;;;5032616;28;20126;-72
2024/03/18 06:26:46;;;;;;;4.35;2.72;;;8.50;99.90;;;;;;5032870;28;20033;-71
2024/03/18 06:29:15;;;;;;;3.15;2.78;;;8.50;99.90;;;;;;5033327;28;20030;-72
2024/03/18 06:32:29;;;;;;;3.47;2.80;;;8.60;99.90;;;;;;5026092;28;20557;-71
2024/03/18 06:34:55;;;;;;;3.30;3.00;;;8.60;99.90;;;;;;5024375;28;20033;-73
2024/03/18 06:37:21;;;;;;;3.28;2.78;;;8.70;99.90;;;;;;5032251;28;20072;-72
2024/03/18 06:39:47;;;;;;;3.40;2.90;;;8.70;99.90;;;;;;5026845;28;20492;-72
2024/03/18 06:42:13;;;;;;;4.35;2.75;;;8.80;99.90;;;;;;5026993;28;20030;-72
2024/03/18 06:44:43;;;;;;;2.65;2.38;;;8.80;99.90;;;;;;5027372;28;20025;-72
2024/03/18 06:47:09;;;;;;;3.05;2.70;;;8.80;99.90;;;;;;5021061;28;20104;-73
2024/03/18 06:49:38;;;;;;;3.15;2.55;;;8.90;99.90;;;;;;5022996;28;20406;-72
2024/03/18 06:52:04;;;;;;;3.42;2.25;;;8.90;99.90;;;;;;5026408;28;20025;-72
2024/03/18 06:54:30;;;;;;;3.38;2.50;;;9.00;99.90;;;;;;5028412;28;20042;-73
2024/03/18 06:56:55;;;;;;;3.97;2.50;;;9.10;99.90;;;;;;5025374;28;20954;-73
2024/03/18 06:59:21;;;;;;;4.00;2.70;;;9.10;99.90;;;;;;5029411;28;20079;-73
2024/03/18 07:01:47;;;;;;;2.78;2.38;;;9.20;99.90;;;;;;5028699;28;20424;-72
2024/03/18 07:04:12;;;;;;;5.28;2.55;;;9.20;99.90;;;;;;5030001;28;20044;-73
2024/03/18 07:06:38;;;;;;;2.97;2.50;;;9.30;99.90;;;;;;5030000;28;20029;-72
2024/03/18 07:09:05;;;;;;;2.40;2.20;;;9.30;99.90;;;;;;5028611;28;20033;-72
2024/03/18 07:11:31;;;;;;;2.22;2.03;;;9.40;99.90;;;;;;5029909;28;20497;-73
2024/03/18 07:13:56;;;;;;;2.58;2.25;;;9.40;99.90;;;;;;5030194;28;20033;-72
2024/03/18 07:16:22;;;;;;;3.25;2.33;;;9.40;99.90;;;;;;5028106;28;20057;-72
2024/03/18 07:18:47;;;;;;;3.80;2.45;;;9.40;99.90;;;;;;5023843;28;20033;-73
2024/03/18 07:21:13;;;;;;;5.43;2.42;;;9.40;99.90;;;;;;5023538;28;20029;-72
2024/03/18 07:23:39;;;;;;;4.50;2.50;;;9.40;99.90;;;;;;5024941;28;20364;-72
2024/03/18 07:26:05;;;;;;;3.95;2.60;;;9.40;99.90;;;;;;5024600;28;20035;-73
2024/03/18 07:28:33;;;;;;;3.55;2.40;;;9.50;99.90;;;;;;5026904;28;20542;-73
2024/03/18 07:31:03;;;;;;;2.08;1.88;;;9.60;99.90;;;;;;5023312;28;20026;-72
2024/03/18 07:33:32;;;;;;;3.55;2.63;;;9.70;99.90;;;;;;5027116;28;20032;-73
2024/03/18 07:35:58;;;;;;;4.35;2.65;;;9.70;99.90;;;;;;5022920;28;20046;-73
2024/03/18 07:38:23;;;;;;;6.00;2.58;;;9.80;99.90;;;;;;5016649;28;20065;-72
2024/03/18 07:40:50;;;;;;;2.97;2.25;;;9.80;99.90;;;;;;5024750;28;20634;-73
2024/03/18 07:43:15;;;;;;;3.78;2.38;;;9.90;99.90;;;;;;5024701;28;20568;-72
2024/03/18 07:45:42;;;;;;;5.60;3.05;;;9.90;99.90;;;;;;5024426;28;20029;-73
2024/03/18 07:48:08;;;;;;;3.92;2.55;;;10.00;99.90;;;;;;5024230;28;20029;-73
2024/03/18 07:50:37;;;;;;;4.55;2.50;;;10.00;99.90;;;;;;5025257;28;20032;-73
2024/03/18 07:53:04;;;;;;;3.47;2.30;;;10.10;99.90;;;;;;5026762;28;20049;-72
2024/03/18 07:55:30;;;;;;;2.97;2.30;;;10.10;99.90;;;;;;5026925;28;20043;-73
2024/03/18 07:57:56;;;;;;;6.63;3.03;;;10.20;99.90;;;;;;5026628;28;20128;-73
2024/03/18 08:00:22;;;;;;;5.82;2.60;;;10.20;99.90;;;;;;5020068;28;20539;-73
2024/03/18 08:02:47;;;;;;;3.83;2.50;;;10.10;99.90;;;;;;5025335;28;20049;-73
2024/03/18 08:05:13;;;;;;;5.97;2.67;;;10.20;99.90;;;;;;5027201;28;20036;-72
2024/03/18 08:07:42;;;;;;;2.42;2.20;;;10.30;99.90;;;;;;5026155;28;20802;-73
2024/03/18 08:10:09;;;;;;;4.88;3.03;;;10.30;99.90;;;;;;5023909;28;20072;-73
2024/03/18 08:12:34;;;;;;;4.05;2.35;;;10.30;99.90;;;;;;5020190;28;20034;-73
2024/03/18 08:15:00;;;;;;;2.95;2.35;;;10.40;99.90;;;;;;5023995;28;20399;-73
2024/03/18 08:17:26;;;;;;;5.10;2.70;;;10.40;99.90;;;;;;5022378;28;20049;-77
2024/03/18 08:19:54;;;;;;;2.58;2.00;;;10.40;99.90;;;;;;5030621;28;20038;-76
2024/03/18 08:22:20;;;;;;;3.42;2.33;;;10.40;99.90;;;;;;5029198;28;20029;-75
2024/03/18 08:24:49;;;;;;;2.88;2.40;;;10.60;99.90;;;;;;5026297;28;20075;-74
2024/03/18 08:27:15;;;;;;;4.00;2.20;;;10.50;99.90;;;;;;5032235;28;20072;-78
2024/03/18 08:29:41;;;;;;;2.65;1.92;;;10.60;99.90;;;;;;5033369;28;20037;-75
2024/03/18 08:32:07;;;;;;;4.20;2.10;;;10.50;99.90;;;;;;5033024;28;20026;-80
2024/03/18 08:34:33;;;;;;;2.13;1.92;;;10.60;99.90;;;;;;5034722;28;20025;-79
2024/03/18 08:36:59;;;;;;;2.13;1.58;;;10.60;99.90;;;;;;5030615;28;20037;-79
2024/03/18 08:39:25;;;;;;;3.55;1.90;;;10.50;99.90;;;;;;5026231;28;20038;-78
2024/03/18 08:41:51;;;;;;;2.03;1.83;;;10.40;99.90;;;;;;5030867;28;20081;-74
2024/03/18 08:44:17;;;;;;;2.17;1.90;;;10.50;99.90;;;;;;5029238;28;20030;-75
2024/03/18 08:46:46;;;;;;;2.10;1.90;;;10.60;99.90;;;;;;5031686;28;20036;-78
2024/03/18 08:49:13;;;;;;;2.13;1.60;;;10.60;99.90;;;;;;5031498;28;20036;-78
2024/03/18 08:51:43;;;;;;;2.33;1.80;;;10.60;99.90;;;;;;5026544;28;20495;-75
2024/03/18 08:54:09;;;;;;;2.95;1.75;;;10.70;99.90;;;;;;5030587;28;20033;-77
2024/03/18 08:56:34;;;;;;;3.17;2.00;;;10.70;99.90;;;;;;5030629;28;20053;-77
2024/03/18 08:59:00;;;;;;;5.70;2.58;;;10.70;99.90;;;;;;5029511;28;20037;-78
2024/03/18 09:01:25;;;;;;;6.25;2.20;;;10.80;99.90;;;;;;5032176;28;20099;-78
2024/03/18 09:03:51;;;;;;;1.88;1.70;;;10.90;99.90;;;;;;5047966;28;20111;-76
2024/03/18 09:06:17;;;;;;;2.80;2.10;;;10.90;99.90;;;;;;5032642;28;20033;-75
2024/03/18 09:08:45;;;;;;;3.92;1.75;;;10.70;99.90;;;;;;5031430;28;20068;-77
2024/03/18 09:11:12;;;;;;;2.10;1.85;;;10.60;99.90;;;;;;5029995;28;20026;-76
2024/03/18 09:13:39;;;;;;;1.92;1.70;;;10.60;99.90;;;;;;5031133;28;20065;-78
2024/03/18 09:16:05;;;;;;;2.38;1.80;;;10.60;99.90;;;;;;5019912;28;20101;-78
2024/03/18 09:18:31;;;;;;;2.70;1.75;;;10.60;99.90;;;;;;5031816;28;20038;-77
2024/03/18 09:20:57;;;;;;;4.60;1.70;;;10.60;99.90;;;;;;5029647;28;20629;-78
2024/03/18 09:23:23;;;;;;;4.32;1.80;;;10.50;99.90;;;;;;5029760;28;20056;-75
2024/03/18 09:25:50;;;;;;;2.15;1.55;;;10.50;99.90;;;;;;5030882;28;20053;-75
2024/03/18 09:28:16;;;;;;;2.92;1.90;;;10.50;99.90;;;;;;5028883;28;20026;-72
2024/03/18 09:30:42;;;;;;;1.90;1.70;;;10.50;99.90;;;;;;5024966;28;20030;-73
2024/03/18 09:33:08;;;;;;;2.53;1.85;;;10.50;99.90;;;;;;5027711;28;20029;-72
2024/03/18 09:35:34;;;;;;;2.53;1.67;;;10.50;99.90;;;;;;5027845;28;20514;-73
2024/03/18 09:37:59;;;;;;;2.55;1.80;;;10.60;99.90;;;;;;5043445;28;20098;-74
2024/03/18 09:40:29;;;;;;;1.55;1.45;;;10.60;99.90;;;;;;5026154;28;20041;-73
2024/03/18 09:42:55;;;;;;;2.58;1.88;;;10.60;99.90;;;;;;5028220;28;20033;-73
2024/03/18 09:45:22;;;;;;;2.10;1.40;;;10.50;99.90;;;;;;5026741;28;20117;-72
2024/03/18 09:47:48;;;;;;;4.55;1.40;;;10.60;99.90;;;;;;5027128;28;20522;-73
2024/03/18 09:50:16;;;;;;;4.18;1.65;;;10.50;99.90;;;;;;5030222;28;20060;-72
2024/03/18 09:52:44;;;;;;;2.83;1.80;;;10.50;99.90;;;;;;5028422;28;20036;-72
2024/03/18 09:55:30;;;;;;;3.42;1.58;;;10.40;99.90;;;;;;5032641;28;20057;-72
2024/03/18 09:57:56;;;;;;;4.03;1.85;;;10.40;99.90;;;;;;5035270;28;20140;-73
2024/03/18 10:00:22;;;;;;;2.53;1.80;;;10.40;99.90;;;;;;5026604;28;20384;-73
2024/03/18 10:02:51;;;;;;;3.63;1.70;;;10.30;99.90;;;;;;5022753;28;20041;-71
2024/03/18 10:05:18;;;;;;;3.65;2.00;;;10.40;99.90;;;;;;5030238;28;20191;-72
2024/03/18 10:07:45;;;;;;;2.10;1.90;;;10.40;99.90;;;;;;5030258;28;20034;-72
2024/03/18 10:10:16;;;;;;;2.47;1.67;;;10.50;99.90;;;;;;5030325;28;20025;-71
2024/03/18 10:12:42;;;;;;;3.08;1.70;;;10.50;99.90;;;;;;5018257;28;20398;-73
2024/03/18 10:15:12;;;;;;;2.20;1.73;;;10.50;99.90;;;;;;5030363;28;20684;-72
2024/03/18 10:17:37;;;;;;;2.50;1.77;;;10.60;99.90;;;;;;5032063;28;20025;-73
2024/03/18 10:20:20;;;;;;;2.75;1.90;;;10.50;99.90;;;;;;5029087;28;20045;-73
2024/03/18 10:22:54;;;;;;;4.15;2.10;;;10.60;99.90;;;;;;5029512;28;20029;-72
2024/03/18 10:25:21;;;;;;;3.28;2.05;;;10.60;99.90;;;;;;5031914;28;20037;-73
2024/03/18 10:27:53;;;;;;;7.03;2.63;;;10.70;99.90;;;;;;5027689;28;20346;-73
2024/03/18 10:30:19;;;;;;;2.10;1.70;;;10.80;99.90;;;;;;5025876;28;20032;-73
2024/03/18 10:32:46;;;;;;;2.10;1.90;;;10.70;99.90;;;;;;5031467;28;20037;-72
2024/03/18 10:35:23;;;;;;;3.53;2.10;;;10.60;99.90;;;;;;5027129;28;21178;-72
2024/03/18 10:37:59;;;;;;;2.38;2.10;;;10.60;99.90;;;;;;5023277;28;20079;-72
2024/03/18 10:40:34;;;;;;;3.17;2.33;;;10.70;99.90;;;;;;5029613;28;20089;-72
2024/03/18 10:43:02;;;;;;;4.05;2.35;;;11.00;99.90;;;;;;5031600;28;20521;-72
2024/03/18 10:45:29;;;;;;;;;;;11.10;99.90;;;;;;5029665;28;20029;-72
2024/03/18 10:48:16;;;;;;;2.00;1.90;;;10.80;99.90;;;;;;5029920;28;19920;-73
2024/03/18 10:50:44;;;;;;;5.10;2.83;;;10.70;99.90;;;;;;5021827;28;20387;-73
2024/03/18 10:53:22;;;;;;;2.13;1.93;;;10.60;99.90;;;;;;5027053;28;20045;-73
2024/03/18 10:55:52;;;;;;;4.47;2.73;;;10.70;99.90;;;;;;5029084;28;20036;-73
2024/03/18 10:58:21;;;;;;;5.45;3.45;;;10.70;99.90;;;;;;5026818;28;20590;-73
2024/03/18 11:00:47;;;;;;;3.35;2.70;;;10.80;99.90;;;;;;5030197;28;20029;-73
2024/03/18 11:03:19;;;;;;;4.70;1.75;;;10.80;99.90;;;;;;5027391;28;20108;-73
2024/03/18 11:05:49;;;;;;;3.92;2.60;;;10.80;99.90;;;;;;5030224;28;20026;-73
2024/03/18 11:08:17;;;;;;;5.57;2.50;;;10.80;99.90;;;;;;5028549;28;20483;-73
2024/03/18 11:10:46;;;;;;;3.42;2.70;;;10.80;99.90;;;;;;5030251;28;20026;-72
2024/03/18 11:13:14;;;;;;;6.93;3.33;;;10.80;99.90;;;;;;5028720;28;20117;-72
2024/03/18 11:15:53;;;;;;;5.80;2.97;;;11.00;99.90;;;;;;5025593;28;20014;-73
2024/03/18 11:18:29;;;;;;;5.47;3.20;;;11.10;99.90;;;;;;5027136;28;20032;-72
2024/03/18 11:20:59;;;;;;;5.00;3.05;;;11.10;99.90;;;;;;5023062;28;20087;-73
2024/03/18 11:23:30;;;;;;;6.43;3.25;;;11.20;99.90;;;;;;5028956;28;20495;-73
2024/03/18 11:26:07;;;;;;;4.63;3.08;;;11.30;99.90;;;;;;5027489;28;20022;-73
2024/03/18 11:28:41;;;;;;;3.50;3.00;;;11.30;99.90;;;;;;5028146;28;20040;-72
2024/03/18 11:31:13;;;;;;;4.20;2.72;;;11.20;99.90;;;;;;5028217;28;20261;-73
2024/03/18 11:33:39;;;;;;;6.15;3.50;;;11.20;99.90;;;;;;5026404;28;20060;-73
2024/03/18 11:36:14;;;;;;;5.03;3.40;;;11.20;99.90;;;;;;5027394;28;20064;-73
2024/03/18 11:38:39;;;;;;;3.45;2.63;;;11.20;99.90;;;;;;5030040;28;20132;-72
2024/03/18 11:41:05;;;;;;;5.80;3.13;;;11.00;99.90;;;;;;5028171;28;20108;-73
2024/03/18 11:43:32;;;;;;;5.22;2.92;;;10.90;99.90;;;;;;5028720;28;20040;-73
2024/03/18 11:46:00;;;;;;;4.88;3.00;;;10.80;99.90;;;;;;5024840;28;20028;-72
2024/03/18 11:48:26;;;;;;;5.47;3.15;;;10.70;99.90;;;;;;5028365;28;20034;-72
2024/03/18 11:50:52;;;;;;;5.30;3.33;;;10.70;99.90;;;;;;5047001;28;20479;-72
2024/03/18 11:53:18;;;;;;;4.93;2.95;;;10.50;99.90;;;;;;5029750;28;20041;-73
2024/03/18 11:55:45;;;;;;;5.10;2.88;;;10.50;99.90;;;;;;5025488;28;20424;-73
2024/03/18 11:58:14;;;;;;;4.00;3.30;;;10.60;99.90;;;;;;5028380;28;20087;-72
2024/03/18 12:00:40;;;;;;;3.58;2.42;;;10.60;99.90;;;;;;5028586;28;20033;-73
2024/03/18 12:03:11;;;;;;;2.28;1.95;;;10.60;99.90;;;;;;5027625;28;20052;-73
2024/03/18 12:05:44;;;;;;;3.10;2.58;;;10.50;99.90;;;;;;5030092;28;20101;-73
2024/03/18 12:08:23;;;;;;;6.18;2.90;;;10.50;99.90;;;;;;5026647;28;20125;-72
2024/03/18 12:10:54;;;;;;;3.88;3.40;;;10.60;99.90;;;;;;5026741;28;20368;-74
2024/03/18 12:13:22;;;;;;;4.05;3.28;;;10.60;99.90;;;;;;5030306;28;20301;-74
2024/03/18 12:15:47;;;;;;;6.00;3.28;;;10.70;99.90;;;;;;5026760;28;20069;-73
2024/03/18 12:18:15;;;;;;;6.70;3.45;;;10.70;99.90;;;;;;5027905;28;20092;-72
2024/03/18 12:20:43;;;;;;;3.78;2.92;;;10.60;99.90;;;;;;5021549;28;20631;-73
2024/03/18 12:28:31;;;;;;;4.13;3.28;;;10.70;99.90;;;;;;5026311;28;20089;-73
2024/03/18 12:28:50;;;;;;;7.20;4.18;;;10.80;99.90;;;;;;5025884;28;20049;-73
2024/03/18 12:31:19;;;;;;;3.42;2.92;;;10.80;99.90;;;;;;5024578;28;20042;-73
2024/03/18 12:33:46;;;;;;;3.22;2.58;;;10.70;99.90;;;;;;5025935;28;20021;-73
2024/03/18 12:36:17;;;;;;;4.82;3.33;;;10.60;99.90;;;;;;5022392;28;20036;-73
2024/03/18 12:38:46;;;;;;;5.85;3.63;;;10.70;99.90;;;;;;5029848;28;20033;-73
2024/03/18 12:41:18;;;;;;;4.80;3.63;;;10.70;99.90;;;;;;5030349;28;20040;-72
2024/03/18 12:43:44;;;;;;;6.25;3.40;;;10.90;99.90;;;;;;5031714;28;20037;-73
2024/03/18 12:46:17;;;;;;;5.43;3.55;;;10.90;99.90;;;;;;5029379;28;20037;-73
2024/03/18 12:48:44;;;;;;;6.85;4.00;;;10.90;99.90;;;;;;5027627;28;20045;-74
2024/03/18 12:51:17;;;;;;;4.90;3.50;;;11.00;99.90;;;;;;5028807;28;20021;-74
2024/03/18 12:53:47;;;;;;;8.13;3.92;;;11.00;99.90;;;;;;5031014;28;20049;-72
2024/03/18 12:56:13;;;;;;;6.68;3.17;;;11.10;99.90;;;;;;5027502;28;20399;-72
2024/03/18 12:58:39;;;;;;;4.13;2.72;;;11.10;99.90;;;;;;5019792;28;20041;-73
2024/03/18 13:01:08;;;;;;;4.38;3.17;;;11.00;99.90;;;;;;5028011;28;20045;-72